Pontotoc, Mississippi
Current Conditions -  °F | °C
As of 1:53 PM on Thursday 27 Nov 2014 (Local Time) from KTUP Reporting Station
Overcast Overcast  
Wind Chill: 39°   Ceiling: 3600
Heat Index: 44°   Visibility: 10mi
Dew Point: 28°   Wind: 9mph
Humidity: 53%   Direction: 10°N
Pressure: 30.45"   Gusts: NA
Location:  34.25°N, 89°W
Report Text: KTUP 271953Z 01008KT 10SM OVC036 07/M02 A3045 RMK AO2 SLP312 T00671022 $
Loading
Personal Weather Stations






























Interactive Weather Map New forecast layout! Learn more

10-Day Weather Forecast

Advertisements
Track Severe Weather on mobile